createdAt,value
2022-10-19T00:01:27.209Z,102930.25
2022-10-19T00:03:55.909Z,102934.06
2022-10-19T00:06:33.843Z,102924.16
2022-10-19T00:09:06.474Z,102926.91
2022-10-19T00:11:34.618Z,102927.16
2022-10-19T00:14:01.977Z,102928.22
2022-10-19T00:16:32.202Z,102914.59
2022-10-19T00:19:00.463Z,102912.91
2022-10-19T00:21:27.605Z,102912.91
2022-10-19T00:23:54.150Z,102921.09
2022-10-19T00:26:20.605Z,102909.34
2022-10-19T00:28:47.386Z,102903.06
2022-10-19T00:31:16.612Z,102910.69
2022-10-19T00:33:46.700Z,102921.59
2022-10-19T00:36:21.389Z,102925.16
2022-10-19T00:38:48.528Z,102918.00
2022-10-19T00:41:16.240Z,102928.09
2022-10-19T00:44:04.126Z,102918.00
2022-10-19T00:46:36.840Z,102918.28
2022-10-19T00:49:10.801Z,102919.34
2022-10-19T00:51:40.863Z,102922.28
2022-10-19T00:54:09.224Z,102922.28
2022-10-19T00:56:39.866Z,102923.38
2022-10-19T00:59:07.779Z,102928.00
2022-10-19T01:01:35.004Z,102921.72
2022-10-19T01:04:01.732Z,102923.63
2022-10-19T01:06:28.712Z,102919.22
2022-10-19T01:08:55.260Z,102917.34
2022-10-19T01:11:30.786Z,102914.63
2022-10-19T01:14:00.106Z,102923.84
2022-10-19T01:16:38.424Z,102914.00
2022-10-19T01:19:25.794Z,102908.81
2022-10-19T01:22:29.920Z,102906.91
2022-10-19T01:25:11.644Z,102906.09
2022-10-19T01:28:00.387Z,102907.13
2022-10-19T01:30:35.674Z,102909.84
2022-10-19T01:33:06.941Z,102903.81
2022-10-19T01:35:43.837Z,102905.47
2022-10-19T01:38:37.115Z,102897.53
2022-10-19T01:41:34.661Z,102900.28
2022-10-19T01:44:11.459Z,102897.78
2022-10-19T01:46:45.035Z,102888.75
2022-10-19T01:49:21.421Z,102886.03
2022-10-19T01:51:55.374Z,102892.56
2022-10-19T01:54:24.156Z,102880.56
2022-10-19T01:56:52.281Z,102888.75
2022-10-19T01:59:21.273Z,102886.28
2022-10-19T02:01:50.801Z,102878.31
2022-10-19T02:04:19.824Z,102878.56
2022-10-19T02:06:46.481Z,102877.75
2022-10-19T02:09:18.244Z,102887.84
2022-10-19T02:11:49.660Z,102875.03
2022-10-19T02:14:22.306Z,102872.50
2022-10-19T02:16:57.855Z,102871.69
2022-10-19T02:21:56.815Z,102861.59
2022-10-19T02:24:23.264Z,102859.97
2022-10-19T02:26:50.209Z,102860.22
2022-10-19T02:29:17.098Z,102862.94
2022-10-19T02:31:44.264Z,102859.97
2022-10-19T02:34:11.237Z,102869.44
2022-10-19T02:36:37.838Z,102872.41
2022-10-19T02:39:04.960Z,102871.34
2022-10-19T02:41:38.262Z,102872.41
2022-10-19T02:44:15.910Z,102872.69
2022-10-19T02:47:02.075Z,102875.41
2022-10-19T02:49:29.656Z,102870.78
2022-10-19T02:52:00.035Z,102859.03
2022-10-19T02:54:27.853Z,102852.97
2022-10-19T02:56:54.913Z,102856.53
2022-10-19T02:59:21.888Z,102854.06
2022-10-19T03:01:48.380Z,102857.59
2022-10-19T03:04:15.559Z,102848.81
2022-10-19T03:06:42.172Z,102837.69
2022-10-19T03:09:09.118Z,102839.81
2022-10-19T03:11:35.715Z,102834.38
2022-10-19T03:14:02.370Z,102842.78
2022-10-19T03:16:28.858Z,102833.53
2022-10-19T03:18:55.351Z,102818.25
2022-10-19T03:21:21.919Z,102825.84
2022-10-19T03:23:48.397Z,102829.63
2022-10-19T03:26:17.069Z,102825.00
2022-10-19T03:28:43.630Z,102832.09
2022-10-19T03:31:10.178Z,102830.72
2022-10-19T03:33:36.652Z,102830.72
2022-10-19T03:36:26.777Z,102823.56
2022-10-19T03:38:56.222Z,102812.09
2022-10-19T03:41:24.750Z,102811.03
2022-10-19T03:43:51.760Z,102817.56
2022-10-19T03:46:18.832Z,102824.09
2022-10-19T03:48:45.788Z,102826.81
2022-10-19T03:51:18.293Z,102817.81
2022-10-19T03:53:45.340Z,102813.41
2022-10-19T03:56:13.366Z,102824.31
2022-10-19T03:58:40.577Z,102819.09
2022-10-19T04:01:12.949Z,102819.94
2022-10-19T04:03:39.778Z,102816.59
2022-10-19T04:06:15.795Z,102815.56
2022-10-19T04:08:48.071Z,102816.38
2022-10-19T04:11:21.508Z,102817.19
2022-10-19T04:13:50.448Z,102803.56
2022-10-19T04:16:17.444Z,102810.94
2022-10-19T04:18:44.048Z,102815.56
2022-10-19T04:21:25.004Z,102813.66
2022-10-19T04:23:53.521Z,102807.38
2022-10-19T04:26:20.502Z,102812.81
2022-10-19T04:28:47.275Z,102816.38
2022-10-19T04:31:13.870Z,102822.91
2022-10-19T04:33:41.122Z,102830.00
2022-10-19T04:36:11.052Z,102828.34
2022-10-19T04:38:38.641Z,102824.78
2022-10-19T04:41:13.407Z,102841.13
2022-10-19T04:43:40.864Z,102836.53
2022-10-19T04:46:13.922Z,102834.03
2022-10-19T04:48:41.338Z,102831.31
2022-10-19T04:51:09.046Z,102832.13
2022-10-19T04:53:37.581Z,102832.13
2022-10-19T04:56:06.615Z,102834.84
2022-10-19T04:58:33.326Z,102829.41
2022-10-19T05:01:00.239Z,102834.84
2022-10-19T05:03:26.807Z,102838.41
2022-10-19T05:05:53.311Z,102830.47
2022-10-19T05:08:19.933Z,102823.38
2022-10-19T05:10:47.777Z,102817.94
2022-10-19T05:13:14.618Z,102818.75
2022-10-19T05:15:41.101Z,102828.00
2022-10-19T05:18:07.551Z,102822.56
2022-10-19T05:20:34.050Z,102825.28
2022-10-19T05:23:04.693Z,102829.06
2022-10-19T05:25:33.782Z,102817.31
2022-10-19T05:28:00.292Z,102815.66
2022-10-19T05:30:27.007Z,102811.03
2022-10-19T05:32:53.475Z,102803.94
2022-10-19T05:35:22.633Z,102802.28
2022-10-19T05:37:53.594Z,102801.44
2022-10-19T05:40:20.160Z,102805.03
2022-10-19T05:42:46.700Z,102806.66
2022-10-19T05:45:13.182Z,102805.03
2022-10-19T05:47:39.617Z,102800.41
2022-10-19T05:50:06.322Z,102793.25
2022-10-19T05:52:32.796Z,102792.44
2022-10-19T05:54:59.295Z,102797.88
2022-10-19T05:57:25.927Z,102782.59
2022-10-19T05:59:52.427Z,102785.34
2022-10-19T06:02:19.028Z,102778.81
2022-10-19T06:04:45.463Z,102781.78
2022-10-19T06:07:11.947Z,102782.59
2022-10-19T06:09:38.421Z,102777.41
2022-10-19T06:12:04.911Z,102780.97
2022-10-19T06:14:31.369Z,102780.13
2022-10-19T06:16:57.821Z,102767.56
2022-10-19T06:19:24.308Z,102767.56
2022-10-19T06:21:50.791Z,102773.25
2022-10-19T06:24:17.335Z,102777.88
2022-10-19T06:26:43.805Z,102777.88
2022-10-19T06:29:10.412Z,102790.69
2022-10-19T06:31:37.245Z,102787.97
2022-10-19T06:34:04.498Z,102799.09
2022-10-19T06:36:31.558Z,102798.25
2022-10-19T06:38:59.939Z,102790.34
2022-10-19T06:41:26.993Z,102790.53
2022-10-19T06:43:54.997Z,102787.81
2022-10-19T06:46:23.619Z,102789.47
2022-10-19T06:48:55.289Z,102795.78
2022-10-19T06:51:22.606Z,102797.88
2022-10-19T06:53:52.965Z,102792.44
2022-10-19T06:56:24.666Z,102786.16
2022-10-19T06:58:51.819Z,102784.50
2022-10-19T07:01:18.562Z,102779.28
2022-10-19T07:03:45.153Z,102780.34
2022-10-19T07:06:12.965Z,102784.97
2022-10-19T07:08:42.168Z,102781.41
2022-10-19T07:11:11.783Z,102787.69
2022-10-19T07:13:38.830Z,102775.97
2022-10-19T07:16:08.640Z,102780.59
2022-10-19T07:18:36.425Z,102782.50
2022-10-19T07:21:07.152Z,102787.94
2022-10-19T07:23:35.362Z,102783.53
2022-10-19T07:26:12.465Z,102792.78
2022-10-19T07:28:40.650Z,102788.41
2022-10-19T07:31:09.571Z,102775.00
2022-10-19T07:33:36.491Z,102772.28
2022-10-19T07:36:05.361Z,102769.56
2022-10-19T07:38:32.252Z,102773.38
2022-10-19T07:41:14.799Z,102781.53
2022-10-19T07:43:43.928Z,102769.00
2022-10-19T07:46:22.431Z,102767.34
2022-10-19T07:48:49.832Z,102757.00
2022-10-19T07:51:18.215Z,102759.16
2022-10-19T07:53:45.094Z,102756.66
2022-10-19T07:56:18.228Z,102757.13
2022-10-19T07:58:44.871Z,102742.47
2022-10-19T08:01:14.622Z,102738.66
2022-10-19T08:06:28.660Z,102734.03
2022-10-19T08:08:56.253Z,102725.59
2022-10-19T08:11:26.122Z,102716.38
2022-10-19T08:13:53.626Z,102714.50
2022-10-19T08:16:23.651Z,102716.38
2022-10-19T08:18:50.715Z,102711.75
2022-10-19T08:21:17.283Z,102718.28
2022-10-19T08:23:43.835Z,102720.50
2022-10-19T08:26:10.343Z,102727.38
2022-10-19T08:28:36.895Z,102731.19
2022-10-19T08:31:21.241Z,102729.75
2022-10-19T08:33:50.637Z,102731.06
2022-10-19T08:36:19.687Z,102731.91
2022-10-19T08:38:48.367Z,102735.47
2022-10-19T08:41:29.959Z,102746.13
2022-10-19T08:44:11.744Z,102736.03
2022-10-19T08:46:55.429Z,102740.41
2022-10-19T08:49:25.636Z,102740.56
2022-10-19T08:51:58.571Z,102735.81
2022-10-19T08:54:37.999Z,102730.97
2022-10-19T08:57:18.693Z,102735.13
2022-10-19T08:59:52.047Z,102743.03
2022-10-19T09:05:48.901Z,102733.78
2022-10-19T09:08:17.942Z,102735.47
2022-10-19T09:10:48.737Z,102748.50
2022-10-19T09:14:05.857Z,102741.97
2022-10-19T09:16:34.925Z,102745.75
2022-10-19T09:19:02.696Z,102744.94
2022-10-19T09:21:47.734Z,102732.13
2022-10-19T09:24:38.929Z,102725.03
2022-10-19T09:27:10.249Z,102713.06
2022-10-19T09:29:56.768Z,102715.78
2022-10-19T09:32:32.192Z,102710.59
2022-10-19T09:35:03.270Z,102707.88
2022-10-19T09:37:31.734Z,102709.75
2022-10-19T09:39:58.643Z,102704.31
2022-10-19T09:42:29.431Z,102687.72
2022-10-19T09:44:57.162Z,102692.09
2022-10-19T09:47:37.155Z,102676.81
2022-10-19T09:50:26.448Z,102679.53
2022-10-19T09:52:56.592Z,102684.75
2022-10-19T09:55:28.758Z,102684.75
2022-10-19T09:58:03.061Z,102666.53
2022-10-19T10:00:39.861Z,102656.66
2022-10-19T10:03:07.671Z,102653.94
2022-10-19T10:05:37.231Z,102653.94
2022-10-19T10:08:12.262Z,102652.63
2022-10-19T10:10:43.464Z,102658.34
2022-10-19T10:13:20.353Z,102648.28
2022-10-19T10:15:54.715Z,102638.19
2022-10-19T10:18:24.452Z,102635.69
2022-10-19T10:21:32.406Z,102632.97
2022-10-19T10:24:11.141Z,102623.16
2022-10-19T10:26:46.367Z,102625.03
2022-10-19T10:29:23.362Z,102621.50
2022-10-19T10:31:54.572Z,102614.75
2022-10-19T10:34:59.908Z,102612.84
2022-10-19T10:37:41.642Z,102604.91
2022-10-19T10:40:23.667Z,102603.00
2022-10-19T10:42:53.504Z,102610.13
2022-10-19T10:45:30.885Z,102605.50
2022-10-19T10:47:59.763Z,102607.63
2022-10-19T10:50:34.475Z,102599.22
2022-10-19T10:53:03.748Z,102616.97
2022-10-19T10:55:31.542Z,102614.50
2022-10-19T10:58:25.402Z,102624.31
2022-10-19T11:00:54.928Z,102620.50
2022-10-19T11:03:32.771Z,102620.28
2022-10-19T11:06:02.607Z,102622.19
2022-10-19T11:08:35.941Z,102601.22
2022-10-19T11:11:15.171Z,102585.69
2022-10-19T11:13:50.369Z,102587.34
2022-10-19T11:16:28.141Z,102576.44
2022-10-19T11:19:25.734Z,102570.97
2022-10-19T11:22:02.542Z,102565.31
2022-10-19T11:25:03.193Z,102559.59
2022-10-19T11:27:48.373Z,102563.16
2022-10-19T11:30:24.028Z,102562.66
2022-10-19T11:33:07.962Z,102546.31
2022-10-19T11:35:56.433Z,102541.47
2022-10-19T11:38:29.879Z,102536.00
2022-10-19T11:41:17.446Z,102535.78
2022-10-19T11:44:03.138Z,102538.03
2022-10-19T11:46:38.102Z,102531.75
2022-10-19T11:49:42.379Z,102527.13
2022-10-19T11:52:17.004Z,102510.50
2022-10-19T11:55:02.066Z,102508.38
2022-10-19T11:57:53.354Z,102509.41
2022-10-19T12:00:38.089Z,102511.66
2022-10-19T12:03:20.620Z,102497.22
2022-10-19T12:06:02.852Z,102496.13
2022-10-19T12:09:00.349Z,102491.28
2022-10-19T12:11:38.866Z,102498.13
2022-10-19T12:14:12.729Z,102489.97
2022-10-19T12:16:49.622Z,102471.69
2022-10-19T12:19:25.501Z,102473.34
2022-10-19T12:21:58.563Z,102461.34
2022-10-19T12:24:26.536Z,102462.78
2022-10-19T12:26:54.803Z,102458.13
2022-10-19T12:29:29.521Z,102449.13
2022-10-19T12:31:57.724Z,102436.09
2022-10-19T12:34:55.279Z,102449.47
2022-10-19T12:37:41.757Z,102442.94
2022-10-19T12:43:43.696Z,102420.63
2022-10-19T12:46:28.494Z,102412.44
2022-10-19T12:49:25.966Z,102413.28
2022-10-19T12:51:54.207Z,102419.06
2022-10-19T12:54:35.680Z,102422.38
2022-10-19T12:57:03.852Z,102424.84
2022-10-19T12:59:33.202Z,102422.94
2022-10-19T13:02:02.240Z,102412.84
2022-10-19T13:04:35.825Z,102399.78
2022-10-19T13:07:10.878Z,102404.16
2022-10-19T13:09:41.820Z,102402.25
2022-10-19T13:12:17.802Z,102388.38
2022-10-19T13:14:51.428Z,102374.25
2022-10-19T13:17:49.965Z,102376.72
2022-10-19T13:20:16.467Z,102379.19
2022-10-19T13:23:01.533Z,102370.19
2022-10-19T13:25:32.126Z,102363.41
2022-10-19T13:28:07.683Z,102365.63
2022-10-19T13:30:41.799Z,102358.50
2022-10-19T13:33:24.810Z,102361.81
2022-10-19T13:36:00.672Z,102356.38
2022-10-19T13:38:58.409Z,102349.81
2022-10-19T13:41:44.344Z,102346.84
2022-10-19T13:44:14.371Z,102346.03
2022-10-19T13:46:59.770Z,102350.97
2022-10-19T13:49:38.042Z,102348.22
2022-10-19T13:52:37.755Z,102349.91
2022-10-19T13:55:23.000Z,102337.31
2022-10-19T14:01:17.310Z,102341.78
2022-10-19T14:04:01.826Z,102349.69
2022-10-19T14:06:43.604Z,102332.00
2022-10-19T14:09:19.695Z,102324.63
2022-10-19T14:11:50.399Z,102318.09
2022-10-19T14:14:20.683Z,102320.81
2022-10-19T14:16:50.078Z,102313.22
2022-10-19T14:19:28.273Z,102311.06
2022-10-19T14:21:59.826Z,102300.16
2022-10-19T14:24:36.911Z,102308.09
2022-10-19T14:27:05.474Z,102295.56
2022-10-19T14:29:42.846Z,102291.47
2022-10-19T14:32:10.949Z,102289.31
2022-10-19T14:34:42.581Z,102292.59
2022-10-19T14:37:25.468Z,102287.72
2022-10-19T14:39:59.418Z,102281.44
2022-10-19T14:42:36.690Z,102285.00
2022-10-19T14:45:04.223Z,102274.06
2022-10-19T14:47:30.915Z,102267.53
2022-10-19T14:49:57.430Z,102270.84
2022-10-19T14:52:31.120Z,102276.03
2022-10-19T14:55:01.816Z,102268.41
2022-10-19T14:57:34.928Z,102274.69
2022-10-19T15:00:05.291Z,102269.47
2022-10-19T15:02:44.306Z,102271.69
2022-10-19T15:05:29.573Z,102272.78
2022-10-19T15:07:56.106Z,102272.50
2022-10-19T15:10:39.695Z,102269.78
2022-10-19T15:13:07.491Z,102261.59
2022-10-19T15:15:35.626Z,102268.47
2022-10-19T15:18:02.197Z,102251.53
2022-10-19T15:20:49.221Z,102250.69
2022-10-19T15:23:35.145Z,102231.56
2022-10-19T15:26:28.610Z,102223.38
2022-10-19T15:29:08.003Z,102221.25
2022-10-19T15:31:35.161Z,102217.41
2022-10-19T15:34:03.446Z,102212.22
2022-10-19T15:36:32.190Z,102204.28
2022-10-19T15:39:06.378Z,102203.22
2022-10-19T15:41:44.938Z,102203.78
2022-10-19T15:44:31.543Z,102187.66
2022-10-19T15:47:16.481Z,102183.03
2022-10-19T15:49:43.080Z,102188.22
2022-10-19T15:52:17.858Z,102183.59
2022-10-19T15:54:48.347Z,102184.66
2022-10-19T15:57:23.926Z,102178.66
2022-10-19T15:59:50.551Z,102179.47
2022-10-19T16:02:17.106Z,102175.94
2022-10-19T16:04:43.617Z,102168.81
2022-10-19T16:07:24.365Z,102172.38
2022-10-19T16:09:50.923Z,102165.00
2022-10-19T16:12:18.821Z,102147.81
2022-10-19T16:14:45.297Z,102141.50
2022-10-19T16:17:15.476Z,102126.50
2022-10-19T16:19:42.979Z,102126.22
2022-10-19T16:22:10.035Z,102121.03
2022-10-19T16:24:36.648Z,102118.56
2022-10-19T16:27:03.523Z,102111.47
2022-10-19T16:29:30.138Z,102119.66
2022-10-19T16:31:56.641Z,102118.00
2022-10-19T16:34:23.292Z,102117.75
2022-10-19T16:36:49.837Z,102118.00
2022-10-19T16:39:16.443Z,102120.47
2022-10-19T16:41:44.365Z,102117.50
2022-10-19T16:44:12.572Z,102114.19
2022-10-19T16:46:39.265Z,102110.66
2022-10-19T16:49:05.907Z,102112.56
2022-10-19T16:51:40.919Z,102108.19
2022-10-19T16:54:11.479Z,102110.38
2022-10-19T16:56:43.418Z,102105.47
2022-10-19T16:59:11.845Z,102104.38
2022-10-19T17:01:38.330Z,102107.09
2022-10-19T17:04:05.100Z,102111.75
2022-10-19T17:06:33.907Z,102109.00
2022-10-19T17:11:46.943Z,102105.47
2022-10-19T17:14:13.478Z,102100.00
2022-10-19T17:16:40.182Z,102104.06
2022-10-19T17:19:08.395Z,102116.06
2022-10-19T17:21:38.569Z,102116.63
2022-10-19T17:24:07.324Z,102122.06
2022-10-19T17:26:39.432Z,102118.25
2022-10-19T17:29:06.777Z,102112.81
2022-10-19T17:31:34.172Z,102102.97
2022-10-19T17:34:01.888Z,102104.31
2022-10-19T17:36:31.469Z,102107.03
2022-10-19T17:39:01.107Z,102107.88
2022-10-19T17:41:29.219Z,102112.50
2022-10-19T17:43:56.786Z,102107.88
2022-10-19T17:46:29.823Z,102107.31
2022-10-19T17:48:57.623Z,102110.03
2022-10-19T17:51:27.512Z,102110.88
2022-10-19T17:54:05.083Z,102101.56
2022-10-19T17:56:32.309Z,102088.72
2022-10-19T17:58:59.866Z,102083.28
2022-10-19T18:01:27.232Z,102095.00
2022-10-19T18:03:54.053Z,102088.19
2022-10-19T18:06:29.599Z,102087.91
2022-10-19T18:08:57.720Z,102084.91
2022-10-19T18:11:26.942Z,102090.63
2022-10-19T18:13:56.293Z,102091.13
2022-10-19T18:16:31.576Z,102105.59
2022-10-19T18:19:00.420Z,102087.09
2022-10-19T18:21:30.501Z,102071.53
2022-10-19T18:23:59.199Z,102075.56
2022-10-19T18:26:27.774Z,102077.28
2022-10-19T18:28:55.382Z,102068.00
2022-10-19T18:31:29.293Z,102074.53
2022-10-19T18:34:01.573Z,102074.53
2022-10-19T18:36:29.220Z,102063.84
2022-10-19T18:38:58.613Z,102051.28
2022-10-19T18:41:25.897Z,102043.94
2022-10-19T18:43:55.441Z,102034.34
2022-10-19T18:46:23.555Z,102017.16
2022-10-19T18:48:50.330Z,102016.34
2022-10-19T18:51:18.807Z,102008.44
2022-10-19T18:53:45.839Z,102010.34
2022-10-19T18:56:14.882Z,102009.25
2022-10-19T18:58:41.506Z,101997.53
2022-10-19T19:01:20.348Z,101996.72
2022-10-19T19:03:49.859Z,101995.84
2022-10-19T19:06:22.139Z,102001.59
2022-10-19T19:08:49.120Z,102001.59
2022-10-19T19:11:19.485Z,102002.41
2022-10-19T19:13:51.112Z,102011.41
2022-10-19T19:16:17.765Z,101984.41
2022-10-19T19:18:44.559Z,101980.03
2022-10-19T19:21:15.385Z,101969.13
2022-10-19T19:23:42.153Z,101968.84
2022-10-19T19:26:09.400Z,101968.31
2022-10-19T19:28:39.190Z,101968.31
2022-10-19T19:31:09.454Z,101968.56
2022-10-19T19:33:36.251Z,101958.75
2022-10-19T19:36:07.659Z,101955.19
2022-10-19T19:38:35.915Z,101950.81
2022-10-19T19:41:09.544Z,101949.44
2022-10-19T19:43:37.755Z,101953.81
2022-10-19T19:46:09.383Z,101948.34
2022-10-19T19:48:37.309Z,101961.72
2022-10-19T19:51:04.713Z,101962.00
2022-10-19T19:53:31.478Z,101944.81
2022-10-19T19:55:57.981Z,101939.34
2022-10-19T19:58:24.592Z,101943.16
2022-10-19T20:00:51.166Z,101951.06
2022-10-19T20:03:17.742Z,101931.97
2022-10-19T20:05:44.336Z,101935.00
2022-10-19T20:08:11.367Z,101925.13
2022-10-19T20:10:39.503Z,101929.78
2022-10-19T20:13:06.036Z,101941.25
2022-10-19T20:15:32.608Z,101934.41
2022-10-19T20:17:59.120Z,101925.41
2022-10-19T20:20:25.559Z,101939.06
2022-10-19T20:22:52.046Z,101935.22
2022-10-19T20:25:18.622Z,101926.22
2022-10-19T20:27:45.172Z,101915.84
2022-10-19T20:30:11.815Z,101912.06
2022-10-19T20:32:38.623Z,101903.88
2022-10-19T20:35:06.096Z,101898.66
2022-10-19T20:37:32.605Z,101900.00
2022-10-19T20:39:59.105Z,101886.41
2022-10-19T20:42:28.180Z,101883.16
2022-10-19T20:44:55.492Z,101886.44
2022-10-19T20:47:22.012Z,101882.06
2022-10-19T20:49:48.535Z,101884.81
2022-10-19T20:52:15.069Z,101883.16
2022-10-19T20:54:41.588Z,101882.34
2022-10-19T20:57:08.095Z,101883.16
2022-10-19T20:59:34.560Z,101886.97
2022-10-19T21:02:01.147Z,101876.91
2022-10-19T21:04:27.667Z,101876.03
2022-10-19T21:06:54.324Z,101871.69
2022-10-19T21:09:23.265Z,101874.16
2022-10-19T21:11:51.419Z,101879.63
2022-10-19T21:14:23.731Z,101865.13
2022-10-19T21:16:53.923Z,101865.13
2022-10-19T21:19:22.433Z,101864.31
2022-10-19T21:21:52.515Z,101862.41
2022-10-19T21:24:21.481Z,101859.69
2022-10-19T21:26:48.326Z,101855.31
2022-10-19T21:29:16.027Z,101853.41
2022-10-19T21:31:47.856Z,101849.88
2022-10-19T21:34:24.010Z,101844.69
2022-10-19T21:36:51.208Z,101837.31
2022-10-19T21:39:18.190Z,101835.41
2022-10-19T21:41:45.503Z,101827.22
2022-10-19T21:44:12.111Z,101825.59
2022-10-19T21:46:38.661Z,101823.69
2022-10-19T21:49:05.163Z,101816.59
2022-10-19T21:51:40.543Z,101810.31
2022-10-19T21:56:38.185Z,101799.16
2022-10-19T21:59:04.814Z,101799.41
2022-10-19T22:01:37.228Z,101796.66
2022-10-19T22:04:10.855Z,101789.34
2022-10-19T22:06:37.311Z,101793.13
2022-10-19T22:09:06.271Z,101796.66
2022-10-19T22:11:32.982Z,101804.03
2022-10-19T22:14:02.229Z,101795.84
2022-10-19T22:16:30.148Z,101805.94
2022-10-19T22:18:56.883Z,101810.59
2022-10-19T22:21:26.680Z,101793.13
2022-10-19T22:24:00.455Z,101797.75
2022-10-19T22:26:38.920Z,101787.94
2022-10-19T22:29:07.323Z,101783.31
2022-10-19T22:31:34.544Z,101779.78
2022-10-19T22:34:03.699Z,101779.78
2022-10-19T22:36:30.967Z,101774.31
2022-10-19T22:38:57.443Z,101766.94
2022-10-19T22:42:20.464Z,101750.00
2022-10-19T22:44:46.900Z,101753.59
2022-10-19T22:47:13.383Z,101751.69
2022-10-19T22:49:39.866Z,101746.22
2022-10-19T22:52:06.522Z,101746.22
2022-10-19T22:54:33.011Z,101732.03
2022-10-19T22:56:59.518Z,101751.13
2022-10-19T22:59:26.075Z,101743.75
2022-10-19T23:01:52.611Z,101734.75
2022-10-19T23:04:19.193Z,101736.66
2022-10-19T23:06:45.697Z,101732.03
2022-10-19T23:09:12.379Z,101731.22
2022-10-19T23:11:38.868Z,101717.84
2022-10-19T23:14:05.409Z,101723.31
2022-10-19T23:16:31.934Z,101711.31
2022-10-19T23:18:58.399Z,101720.31
2022-10-19T23:21:24.913Z,101718.66
2022-10-19T23:23:51.371Z,101715.94
2022-10-19T23:26:21.981Z,101715.13
2022-10-19T23:28:49.857Z,101709.69
2022-10-19T23:31:24.350Z,101711.59
2022-10-19T23:33:52.261Z,101700.69
2022-10-19T23:36:22.936Z,101711.59
2022-10-19T23:38:51.374Z,101703.41
2022-10-19T23:41:19.029Z,101700.13
2022-10-19T23:43:45.725Z,101685.38
2022-10-19T23:46:13.005Z,101679.94
2022-10-19T23:48:40.364Z,101681.03
2022-10-19T23:51:09.271Z,101681.03
2022-10-19T23:53:40.881Z,101682.13
2022-10-19T23:56:19.756Z,101673.94
2022-10-19T23:58:46.679Z,101675.84
